createdAt,value
2018-07-08T00:00:56.598Z,0.00
2018-07-08T00:01:56.560Z,0.00
2018-07-08T00:02:56.993Z,0.00
2018-07-08T00:03:56.514Z,0.00
2018-07-08T00:04:56.479Z,0.00
2018-07-08T00:05:57.394Z,0.00
2018-07-08T00:06:56.432Z,0.00
2018-07-08T00:07:56.456Z,0.00
2018-07-08T00:08:56.388Z,0.00
2018-07-08T00:09:56.354Z,0.00
2018-07-08T00:10:56.332Z,0.00
2018-07-08T00:11:56.302Z,0.00
2018-07-08T00:12:56.328Z,0.00
2018-07-08T00:13:56.312Z,0.00
2018-07-08T00:14:56.230Z,0.00
2018-07-08T00:15:56.205Z,0.00
2018-07-08T00:16:56.900Z,0.00
2018-07-08T00:17:56.156Z,0.00
2018-07-08T00:18:56.176Z,0.00
2018-07-08T00:19:56.113Z,0.00
2018-07-08T00:20:56.078Z,0.00
2018-07-08T00:21:56.897Z,0.00
2018-07-08T00:22:56.029Z,0.00
2018-07-08T00:23:56.059Z,0.00
2018-07-08T00:24:55.981Z,0.00
2018-07-08T00:25:55.954Z,0.00
2018-07-08T00:26:56.898Z,0.00
2018-07-08T00:27:55.904Z,0.00
2018-07-08T00:28:55.921Z,0.00
2018-07-08T00:29:55.851Z,0.00
2018-07-08T00:30:55.826Z,0.00
2018-07-08T00:31:55.949Z,0.00
2018-07-08T00:32:55.793Z,0.00
2018-07-08T00:33:55.751Z,0.00
2018-07-08T00:34:55.742Z,0.00
2018-07-08T00:35:55.700Z,0.00
2018-07-08T00:36:55.962Z,0.00
2018-07-08T00:37:55.649Z,0.00
2018-07-08T00:38:55.655Z,0.00
2018-07-08T00:39:56.036Z,0.00
2018-07-08T00:40:55.576Z,0.00
2018-07-08T00:41:55.593Z,0.00
2018-07-08T00:42:55.542Z,0.00
2018-07-08T00:43:56.401Z,0.00
2018-07-08T00:44:55.557Z,0.00
2018-07-08T00:45:55.450Z,0.00
2018-07-08T00:46:55.425Z,0.00
2018-07-08T00:47:55.476Z,0.00
2018-07-08T00:48:55.386Z,0.00
2018-07-08T00:49:55.354Z,0.00
2018-07-08T00:50:55.362Z,0.00
2018-07-08T00:51:55.455Z,0.00
2018-07-08T00:52:55.316Z,0.00
2018-07-08T00:53:55.258Z,0.00
2018-07-08T00:54:55.910Z,0.00
2018-07-08T00:55:55.203Z,0.00
2018-07-08T00:56:55.216Z,0.00
2018-07-08T00:57:55.464Z,0.00
2018-07-08T00:58:55.164Z,0.00
2018-07-08T00:59:55.919Z,0.00
2018-07-08T01:00:55.083Z,0.00
2018-07-08T01:01:55.459Z,0.00
2018-07-08T01:02:55.017Z,0.00
2018-07-08T01:03:55.034Z,0.00
2018-07-08T01:04:54.977Z,0.00
2018-07-08T01:05:54.945Z,0.00
2018-07-08T01:06:55.906Z,0.00
2018-07-08T01:07:54.943Z,0.00
2018-07-08T01:08:54.873Z,0.00
2018-07-08T01:09:54.838Z,0.00
2018-07-08T01:10:55.449Z,0.00
2018-07-08T01:11:54.831Z,0.00
2018-07-08T01:12:54.763Z,0.00
2018-07-08T01:13:55.412Z,0.00
2018-07-08T01:14:54.715Z,0.00
2018-07-08T01:15:55.409Z,0.00
2018-07-08T01:16:54.703Z,0.00
2018-07-08T01:17:55.408Z,0.00
2018-07-08T01:18:54.653Z,0.00
2018-07-08T01:19:54.592Z,0.00
2018-07-08T01:20:54.602Z,0.00
2018-07-08T01:21:54.536Z,0.00
2018-07-08T01:22:54.504Z,0.00
2018-07-08T01:23:54.539Z,0.00
2018-07-08T01:24:55.412Z,0.00
2018-07-08T01:25:54.428Z,0.00
2018-07-08T01:26:54.401Z,0.00
2018-07-08T01:27:54.385Z,0.00
2018-07-08T01:28:54.401Z,0.00
2018-07-08T01:29:54.349Z,0.00
2018-07-08T01:30:54.301Z,0.00
2018-07-08T01:31:54.911Z,0.00
2018-07-08T01:32:54.253Z,0.00
2018-07-08T01:33:54.273Z,0.00
2018-07-08T01:34:54.466Z,0.00
2018-07-08T01:35:54.172Z,0.00
2018-07-08T01:36:54.151Z,0.00
2018-07-08T01:37:54.910Z,0.00
2018-07-08T01:38:54.097Z,0.00
2018-07-08T01:39:54.468Z,0.00
2018-07-08T01:40:54.045Z,0.00
2018-07-08T01:41:54.062Z,0.00
2018-07-08T01:42:53.995Z,0.00
2018-07-08T01:43:54.027Z,0.00
2018-07-08T01:44:53.956Z,0.00
2018-07-08T01:45:54.917Z,0.00
2018-07-08T01:46:53.892Z,0.00
2018-07-08T01:47:53.872Z,0.00
2018-07-08T01:48:53.968Z,0.00
2018-07-08T01:49:53.823Z,0.00
2018-07-08T01:50:53.852Z,0.00
2018-07-08T01:51:53.819Z,0.00
2018-07-08T01:52:54.421Z,0.00
2018-07-08T01:53:55.323Z,0.00
2018-07-08T01:54:53.969Z,0.00
2018-07-08T01:55:53.661Z,0.00
2018-07-08T01:56:53.640Z,0.00
2018-07-08T01:57:54.422Z,0.00
2018-07-08T01:58:53.630Z,0.00
2018-07-08T01:59:53.572Z,0.00
2018-07-08T02:00:54.416Z,0.00
2018-07-08T02:01:53.511Z,0.00
2018-07-08T02:02:53.970Z,0.00
2018-07-08T02:03:53.456Z,4.00
2018-07-08T02:04:53.436Z,4.00
2018-07-08T02:05:53.459Z,4.00
2018-07-08T02:06:53.384Z,4.00
2018-07-08T02:07:53.925Z,4.00
2018-07-08T02:08:53.378Z,0.00
2018-07-08T02:09:53.305Z,0.00
2018-07-08T02:10:53.289Z,4.00
2018-07-08T02:11:53.302Z,4.00
2018-07-08T02:12:53.225Z,4.00
2018-07-08T02:13:53.209Z,4.00
2018-07-08T02:14:53.183Z,4.00
2018-07-08T02:15:53.150Z,4.00
2018-07-08T02:16:53.171Z,4.00
2018-07-08T02:17:53.094Z,8.00
2018-07-08T02:18:53.071Z,4.00
2018-07-08T02:19:53.044Z,8.00
2018-07-08T02:20:53.064Z,12.00
2018-07-08T02:21:52.995Z,8.00
2018-07-08T02:22:52.965Z,12.00
2018-07-08T02:23:52.940Z,12.00
2018-07-08T02:24:52.959Z,16.00
2018-07-08T02:25:52.941Z,16.00
2018-07-08T02:26:52.862Z,16.00
2018-07-08T02:27:52.840Z,16.00
2018-07-08T02:28:52.812Z,20.00
2018-07-08T02:29:52.788Z,24.00
2018-07-08T02:30:52.818Z,20.00
2018-07-08T02:31:53.443Z,24.00
2018-07-08T02:32:52.715Z,24.00
2018-07-08T02:33:52.688Z,28.00
2018-07-08T02:34:52.659Z,32.00
2018-07-08T02:35:53.094Z,32.00
2018-07-08T02:36:52.602Z,36.00
2018-07-08T02:37:52.578Z,40.00
2018-07-08T02:38:52.557Z,48.00
2018-07-08T02:39:52.529Z,56.00
2018-07-08T02:40:52.547Z,64.00
2018-07-08T02:41:52.487Z,76.00
2018-07-08T02:42:52.447Z,84.00
2018-07-08T02:43:52.428Z,92.00
2018-07-08T02:44:52.440Z,104.00
2018-07-08T02:45:52.372Z,112.00
2018-07-08T02:46:52.391Z,120.00
2018-07-08T02:47:52.325Z,128.00
2018-07-08T02:48:52.292Z,136.00
2018-07-08T02:49:52.274Z,144.00
2018-07-08T02:50:52.287Z,152.00
2018-07-08T02:51:52.260Z,164.00
2018-07-08T02:52:52.192Z,172.00
2018-07-08T02:53:52.165Z,184.00
2018-07-08T02:54:52.151Z,196.00
2018-07-08T02:55:52.169Z,212.00
2018-07-08T02:56:52.159Z,228.00
2018-07-08T02:57:52.061Z,240.00
2018-07-08T02:58:52.035Z,260.00
2018-07-08T02:59:52.007Z,272.00
2018-07-08T03:00:51.994Z,288.00
2018-07-08T03:01:51.997Z,300.00
2018-07-08T03:02:51.932Z,312.00
2018-07-08T03:03:51.947Z,328.00
2018-07-08T03:04:51.881Z,340.00
2018-07-08T03:05:51.902Z,348.00
2018-07-08T03:06:51.831Z,368.00
2018-07-08T03:07:51.808Z,396.00
2018-07-08T03:08:51.779Z,436.00
2018-07-08T03:09:51.749Z,484.00
2018-07-08T03:10:51.771Z,532.00
2018-07-08T03:11:51.717Z,576.00
2018-07-08T03:12:51.678Z,612.00
2018-07-08T03:13:51.648Z,656.00
2018-07-08T03:14:52.435Z,704.00
2018-07-08T03:15:51.647Z,744.00
2018-07-08T03:16:51.575Z,780.00
2018-07-08T03:17:51.550Z,816.00
2018-07-08T03:18:52.446Z,836.00
2018-07-08T03:19:51.541Z,872.00
2018-07-08T03:20:51.469Z,940.00
2018-07-08T03:21:51.448Z,1008.00
2018-07-08T03:22:51.468Z,1060.00
2018-07-08T03:23:51.441Z,1092.00
2018-07-08T03:24:51.366Z,1136.00
2018-07-08T03:25:51.346Z,1188.00
2018-07-08T03:26:51.310Z,1260.00
2018-07-08T03:27:51.312Z,1312.00
2018-07-08T03:28:51.313Z,1264.00
2018-07-08T03:29:51.237Z,1204.00
2018-07-08T03:30:51.218Z,1168.00
2018-07-08T03:31:51.188Z,1136.00
2018-07-08T03:32:51.201Z,1148.00
2018-07-08T03:33:51.193Z,1192.00
2018-07-08T03:34:51.159Z,1232.00
2018-07-08T03:35:51.083Z,1244.00
2018-07-08T03:36:51.066Z,1260.00
2018-07-08T03:37:51.028Z,1272.00
2018-07-08T03:38:51.048Z,1276.00
2018-07-08T03:39:50.982Z,1292.00
2018-07-08T03:40:50.999Z,1316.00
2018-07-08T03:41:50.930Z,1352.00
2018-07-08T03:42:50.901Z,1384.00
2018-07-08T03:43:50.878Z,1408.00
2018-07-08T03:44:50.857Z,1344.00
2018-07-08T03:45:50.869Z,1300.00
2018-07-08T03:46:50.797Z,1308.00
2018-07-08T03:47:50.784Z,1396.00
2018-07-08T03:48:50.746Z,1508.00
2018-07-08T03:49:50.719Z,1624.00
2018-07-08T03:50:50.755Z,1728.00
2018-07-08T03:51:50.714Z,1820.00
2018-07-08T03:52:50.660Z,1804.00
2018-07-08T03:53:50.620Z,1836.00
2018-07-08T03:54:50.590Z,1824.00
2018-07-08T03:55:50.582Z,1864.00
2018-07-08T03:56:50.585Z,1832.00
2018-07-08T03:57:50.513Z,1684.00
2018-07-08T03:58:50.493Z,1684.00
2018-07-08T03:59:50.462Z,1708.00
2018-07-08T04:00:50.439Z,1812.00
2018-07-08T04:01:50.461Z,1984.00
2018-07-08T04:02:50.384Z,2172.00
2018-07-08T04:03:50.371Z,2296.00
2018-07-08T04:04:50.339Z,2452.00
2018-07-08T04:05:50.360Z,2644.00
2018-07-08T04:06:50.280Z,2688.00
2018-07-08T04:07:50.304Z,2504.00
2018-07-08T04:08:50.230Z,2476.00
2018-07-08T04:09:50.212Z,2324.00
2018-07-08T04:10:50.180Z,2092.00
2018-07-08T04:11:50.202Z,1912.00
2018-07-08T04:12:50.140Z,1844.00
2018-07-08T04:13:50.101Z,1788.00
2018-07-08T04:14:50.087Z,1692.00
2018-07-08T04:15:50.053Z,1596.00
2018-07-08T04:16:50.072Z,1552.00
2018-07-08T04:17:50.019Z,1584.00
2018-07-08T04:18:49.986Z,1620.00
2018-07-08T04:19:49.951Z,1612.00
2018-07-08T04:20:49.934Z,1624.00
2018-07-08T04:21:49.945Z,1728.00
2018-07-08T04:22:49.877Z,1896.00
2018-07-08T04:23:49.848Z,2168.00
2018-07-08T04:24:49.826Z,2532.00
2018-07-08T04:25:49.799Z,3080.00
2018-07-08T04:26:49.829Z,3656.00
2018-07-08T04:27:49.792Z,3916.00
2018-07-08T04:28:49.727Z,3844.00
2018-07-08T04:29:49.697Z,3740.00
2018-07-08T04:30:49.677Z,3668.00
2018-07-08T04:31:49.693Z,3448.00
2018-07-08T04:32:49.621Z,3580.00
2018-07-08T04:33:49.656Z,4000.00
2018-07-08T04:34:49.571Z,4400.00
2018-07-08T04:35:49.548Z,4832.00
2018-07-08T04:36:49.525Z,5288.00
2018-07-08T04:37:49.539Z,5452.00
2018-07-08T04:38:49.485Z,5412.00
2018-07-08T04:39:49.448Z,5208.00
2018-07-08T04:40:49.466Z,5140.00
2018-07-08T04:41:49.394Z,5236.00
2018-07-08T04:42:49.372Z,5532.00
2018-07-08T04:43:49.359Z,5856.00
2018-07-08T04:44:49.322Z,5936.00
2018-07-08T04:45:49.340Z,5868.00
2018-07-08T04:46:49.277Z,5676.00
2018-07-08T04:47:49.250Z,5284.00
2018-07-08T04:48:49.241Z,5376.00
2018-07-08T04:49:49.950Z,5744.00
2018-07-08T04:50:49.217Z,6036.00
2018-07-08T04:51:49.149Z,6344.00
2018-07-08T04:52:49.125Z,6452.00
2018-07-08T04:53:49.097Z,6232.00
2018-07-08T04:54:49.129Z,5868.00
2018-07-08T04:55:49.051Z,5560.00
2018-07-08T04:56:49.025Z,5364.00
2018-07-08T04:57:49.058Z,4684.00
2018-07-08T04:58:48.982Z,3988.00
2018-07-08T04:59:48.961Z,3672.00
2018-07-08T05:00:48.985Z,3696.00
2018-07-08T05:01:48.910Z,4084.00
2018-07-08T05:02:48.886Z,5208.00
2018-07-08T05:03:48.902Z,6280.00
2018-07-08T05:04:48.847Z,6784.00
2018-07-08T05:05:48.863Z,7140.00
2018-07-08T05:06:48.833Z,7352.00
2018-07-08T05:07:48.766Z,6984.00
2018-07-08T05:08:48.736Z,6000.00
2018-07-08T05:09:48.720Z,4944.00
2018-07-08T05:10:48.692Z,4496.00
2018-07-08T05:11:48.710Z,4132.00
2018-07-08T05:12:49.464Z,4348.00
2018-07-08T05:13:48.634Z,4748.00
2018-07-08T05:14:48.597Z,5396.00
2018-07-08T05:15:48.572Z,6376.00
2018-07-08T05:16:48.591Z,7336.00
2018-07-08T05:17:48.535Z,7852.00
2018-07-08T05:18:48.494Z,7872.00
2018-07-08T05:19:48.470Z,8064.00
2018-07-08T05:20:48.451Z,8272.00
2018-07-08T05:21:48.467Z,8900.00
2018-07-08T05:22:48.443Z,7956.00
2018-07-08T05:23:48.375Z,8048.00
2018-07-08T05:24:48.352Z,7932.00
2018-07-08T05:25:48.327Z,7716.00
2018-07-08T05:26:48.352Z,8144.00
2018-07-08T05:27:48.279Z,9128.00
2018-07-08T05:28:48.305Z,10144.00
2018-07-08T05:29:48.239Z,11216.00
2018-07-08T05:30:48.217Z,12408.00
2018-07-08T05:31:48.187Z,12984.00
2018-07-08T05:32:48.210Z,12344.00
2018-07-08T05:33:48.144Z,11408.00
2018-07-08T05:34:48.116Z,11544.00
2018-07-08T05:35:48.203Z,10820.00
2018-07-08T05:36:48.067Z,11448.00
2018-07-08T05:37:48.056Z,9820.00
2018-07-08T05:38:48.064Z,7564.00
2018-07-08T05:39:47.999Z,7524.00
2018-07-08T05:40:48.016Z,8324.00
2018-07-08T05:41:47.949Z,9420.00
2018-07-08T05:42:47.932Z,9560.00
2018-07-08T05:43:47.962Z,9456.00
2018-07-08T05:44:47.887Z,9468.00
2018-07-08T05:45:47.869Z,9572.00
2018-07-08T05:46:47.834Z,10968.00
2018-07-08T05:47:47.816Z,14144.00
2018-07-08T05:48:49.516Z,14592.00
2018-07-08T05:49:47.769Z,12120.00
2018-07-08T05:50:47.782Z,10832.00
2018-07-08T05:51:47.736Z,8972.00
2018-07-08T05:52:47.698Z,7028.00
2018-07-08T05:53:47.678Z,6556.00
2018-07-08T05:54:47.653Z,6220.00
2018-07-08T05:55:47.697Z,6184.00
2018-07-08T05:56:47.624Z,5968.00
2018-07-08T05:57:47.581Z,5708.00
2018-07-08T05:58:47.609Z,5656.00
2018-07-08T05:59:47.537Z,5556.00
2018-07-08T06:00:47.513Z,5304.00
2018-07-08T06:01:47.493Z,5168.00
2018-07-08T06:02:47.471Z,5368.00
2018-07-08T06:03:47.541Z,5656.00
2018-07-08T06:04:47.422Z,5692.00
2018-07-08T06:05:47.533Z,5924.00
2018-07-08T06:06:47.373Z,6616.00
2018-07-08T06:07:47.351Z,7328.00
2018-07-08T06:08:47.331Z,8244.00
2018-07-08T06:09:47.302Z,8248.00
2018-07-08T06:10:47.337Z,8288.00
2018-07-08T06:11:47.262Z,7868.00
2018-07-08T06:12:47.233Z,7896.00
2018-07-08T06:13:47.227Z,8980.00
2018-07-08T06:14:47.186Z,10380.00
2018-07-08T06:15:47.207Z,12360.00
2018-07-08T06:16:47.240Z,12876.00
2018-07-08T06:17:47.116Z,11856.00
2018-07-08T06:18:47.096Z,10816.00
2018-07-08T06:19:47.072Z,9444.00
2018-07-08T06:20:47.092Z,10108.00
2018-07-08T06:21:47.091Z,10812.00
2018-07-08T06:22:47.001Z,11404.00
2018-07-08T06:23:46.985Z,11992.00
2018-07-08T06:24:46.956Z,11800.00
2018-07-08T06:25:46.938Z,10828.00
2018-07-08T06:26:46.963Z,11996.00
2018-07-08T06:27:46.904Z,12608.00
2018-07-08T06:28:46.873Z,11200.00
2018-07-08T06:29:46.841Z,10616.00
2018-07-08T06:30:46.821Z,11540.00
2018-07-08T06:31:46.901Z,11620.00
2018-07-08T06:32:46.782Z,10856.00
2018-07-08T06:33:46.752Z,10420.00
2018-07-08T06:34:46.729Z,9332.00
2018-07-08T06:35:46.717Z,8688.00
2018-07-08T06:36:46.732Z,9152.00
2018-07-08T06:37:46.705Z,9196.00
2018-07-08T06:38:46.641Z,9436.00
2018-07-08T06:39:46.642Z,10016.00
2018-07-08T06:40:46.596Z,9444.00
2018-07-08T06:41:46.569Z,9100.00
2018-07-08T06:42:46.604Z,9212.00
2018-07-08T06:43:46.524Z,9176.00
2018-07-08T06:44:46.499Z,9260.00
2018-07-08T06:45:46.476Z,10676.00
2018-07-08T06:46:46.456Z,12332.00
2018-07-08T06:47:46.480Z,15144.00
2018-07-08T06:48:46.410Z,13892.00
2018-07-08T06:49:46.387Z,14112.00
2018-07-08T06:50:46.367Z,15640.00
2018-07-08T06:51:46.341Z,19296.00
2018-07-08T06:52:46.372Z,17632.00
2018-07-08T06:53:46.294Z,15180.00
2018-07-08T06:54:46.291Z,14264.00
2018-07-08T06:55:46.301Z,10820.00
2018-07-08T06:56:46.241Z,10816.00
2018-07-08T06:57:46.215Z,12264.00
2018-07-08T06:58:46.192Z,13996.00
2018-07-08T06:59:46.228Z,13136.00
2018-07-08T07:00:46.182Z,11132.00
2018-07-08T07:01:46.115Z,10976.00
2018-07-08T07:02:46.140Z,11284.00
2018-07-08T07:03:46.073Z,10960.00
2018-07-08T07:04:46.224Z,10224.00
2018-07-08T07:05:46.028Z,10976.00
2018-07-08T07:06:46.087Z,11312.00
2018-07-08T07:07:45.986Z,11068.00
2018-07-08T07:08:45.960Z,10528.00
2018-07-08T07:09:45.941Z,10136.00
2018-07-08T07:10:45.960Z,10776.00
2018-07-08T07:11:45.942Z,11340.00
2018-07-08T07:12:45.884Z,11788.00
2018-07-08T07:13:45.855Z,12648.00
2018-07-08T07:14:45.827Z,13392.00
2018-07-08T07:15:45.863Z,13824.00
2018-07-08T07:16:45.829Z,11464.00
2018-07-08T07:17:45.762Z,10516.00
2018-07-08T07:18:45.743Z,10272.00
2018-07-08T07:19:45.724Z,11632.00
2018-07-08T07:20:45.740Z,12808.00
2018-07-08T07:21:45.674Z,13164.00
2018-07-08T07:22:45.698Z,11848.00
2018-07-08T07:23:45.628Z,11196.00
2018-07-08T07:24:45.614Z,12328.00
2018-07-08T07:25:45.588Z,13216.00
2018-07-08T07:26:45.609Z,14268.00
2018-07-08T07:27:45.541Z,14328.00
2018-07-08T07:28:45.521Z,14036.00
2018-07-08T07:29:45.549Z,13380.00
2018-07-08T07:30:45.474Z,13552.00
2018-07-08T07:31:45.511Z,14608.00
2018-07-08T07:32:45.480Z,16200.00
2018-07-08T07:33:45.422Z,16800.00
2018-07-08T07:34:45.387Z,15716.00
2018-07-08T07:35:45.368Z,15972.00
2018-07-08T07:36:45.344Z,16832.00
2018-07-08T07:37:45.375Z,16372.00
2018-07-08T07:38:45.306Z,15860.00
2018-07-08T07:39:45.278Z,15924.00
2018-07-08T07:40:45.326Z,17632.00
2018-07-08T07:41:45.275Z,17632.00
2018-07-08T07:42:45.258Z,17408.00
2018-07-08T07:43:45.196Z,17504.00
2018-07-08T07:44:45.169Z,17664.00
2018-07-08T07:45:45.154Z,17632.00
2018-07-08T07:46:45.172Z,16320.00
2018-07-08T07:47:45.160Z,13824.00
2018-07-08T07:48:45.082Z,13248.00
2018-07-08T07:49:45.076Z,14976.00
2018-07-08T07:50:45.039Z,15000.00
2018-07-08T07:51:45.087Z,14856.00
2018-07-08T07:52:45.011Z,14312.00
2018-07-08T07:53:45.000Z,14436.00
2018-07-08T07:54:44.956Z,14388.00
2018-07-08T07:55:44.931Z,14064.00
2018-07-08T07:56:44.971Z,14088.00
2018-07-08T07:57:44.890Z,14572.00
2018-07-08T07:58:44.898Z,15248.00
2018-07-08T07:59:44.848Z,15512.00
2018-07-08T08:00:44.847Z,15352.00
2018-07-08T08:01:44.857Z,15348.00
2018-07-08T08:02:44.831Z,15208.00
2018-07-08T08:03:44.767Z,15060.00
2018-07-08T08:04:44.765Z,15384.00
2018-07-08T08:05:44.724Z,15936.00
2018-07-08T08:06:44.708Z,16336.00
2018-07-08T08:07:44.728Z,16640.00
2018-07-08T08:08:44.701Z,16800.00
2018-07-08T08:09:44.638Z,16372.00
2018-07-08T08:10:44.689Z,15540.00
2018-07-08T08:11:44.646Z,14520.00
2018-07-08T08:12:44.634Z,14032.00
2018-07-08T08:13:44.606Z,13904.00
2018-07-08T08:14:44.537Z,13668.00
2018-07-08T08:15:44.521Z,13384.00
2018-07-08T08:16:44.497Z,13412.00
2018-07-08T08:17:44.519Z,13548.00
2018-07-08T08:18:44.458Z,13344.00
2018-07-08T08:19:44.430Z,13048.00
2018-07-08T08:20:44.418Z,12820.00
2018-07-08T08:21:44.389Z,12576.00
2018-07-08T08:22:44.407Z,12480.00
2018-07-08T08:23:44.401Z,12816.00
2018-07-08T08:24:44.358Z,13092.00
2018-07-08T08:25:44.307Z,13212.00
2018-07-08T08:26:44.342Z,13588.00
2018-07-08T08:27:44.262Z,14000.00
2018-07-08T08:28:44.296Z,14528.00
2018-07-08T08:29:44.228Z,15280.00
2018-07-08T08:30:44.203Z,15800.00
2018-07-08T08:31:44.183Z,16228.00
2018-07-08T08:32:44.179Z,16608.00
2018-07-08T08:33:44.178Z,16832.00
2018-07-08T08:34:44.173Z,17344.00
2018-07-08T08:35:44.108Z,18176.00
2018-07-08T08:36:44.082Z,18816.00
2018-07-08T08:37:44.067Z,18880.00
2018-07-08T08:38:44.038Z,18624.00
2018-07-08T08:39:44.074Z,18752.00
2018-07-08T08:40:43.998Z,19168.00
2018-07-08T08:41:43.984Z,20128.00
2018-07-08T08:42:43.957Z,22336.00
2018-07-08T08:43:43.931Z,22848.00
2018-07-08T08:44:43.973Z,22528.00
2018-07-08T08:45:43.893Z,18560.00
2018-07-08T08:46:43.876Z,14844.00
2018-07-08T08:47:43.851Z,14060.00
2018-07-08T08:48:43.831Z,13900.00
2018-07-08T08:49:43.855Z,12920.00
2018-07-08T08:50:43.839Z,12104.00
2018-07-08T08:51:43.770Z,11304.00
2018-07-08T08:52:43.766Z,12708.00
2018-07-08T08:53:43.728Z,19296.00
2018-07-08T08:54:43.716Z,20608.00
2018-07-08T08:55:43.734Z,16768.00
2018-07-08T08:56:43.688Z,17856.00
2018-07-08T08:57:43.648Z,20896.00
2018-07-08T08:58:43.634Z,19520.00
2018-07-08T08:59:43.614Z,20192.00
2018-07-08T09:00:43.628Z,24928.00
2018-07-08T09:01:43.627Z,20608.00
2018-07-08T09:02:43.553Z,15892.00
2018-07-08T09:03:43.554Z,16044.00
2018-07-08T09:04:43.505Z,16192.00
2018-07-08T09:05:43.547Z,17440.00
2018-07-08T09:06:43.492Z,17408.00
2018-07-08T09:07:43.449Z,16568.00
2018-07-08T09:08:43.431Z,19968.00
2018-07-08T09:09:43.451Z,24160.00
2018-07-08T09:10:43.496Z,25632.00
2018-07-08T09:11:43.369Z,26048.00
2018-07-08T09:12:43.352Z,25920.00
2018-07-08T09:13:43.324Z,25216.00
2018-07-08T09:14:43.308Z,24608.00
2018-07-08T09:15:43.334Z,23904.00
2018-07-08T09:16:43.267Z,24000.00
2018-07-08T09:17:43.247Z,23168.00
2018-07-08T09:18:43.234Z,23520.00
2018-07-08T09:19:43.217Z,25184.00
2018-07-08T09:20:43.268Z,27488.00
2018-07-08T09:21:43.188Z,26368.00
2018-07-08T09:22:43.156Z,25056.00
2018-07-08T09:23:43.174Z,21120.00
2018-07-08T09:24:43.168Z,16608.00
2018-07-08T09:25:43.151Z,20032.00
2018-07-08T09:26:43.080Z,22880.00
2018-07-08T09:27:43.059Z,23104.00
2018-07-08T09:28:43.041Z,23936.00
2018-07-08T09:29:43.023Z,24672.00
2018-07-08T09:30:43.059Z,23104.00
2018-07-08T09:31:42.982Z,21472.00
2018-07-08T09:32:42.973Z,23648.00
2018-07-08T09:33:42.948Z,24544.00
2018-07-08T09:34:42.947Z,25600.00
2018-07-08T09:35:42.955Z,24832.00
2018-07-08T09:36:42.895Z,23648.00
2018-07-08T09:37:42.873Z,22336.00
2018-07-08T09:38:42.911Z,22880.00
2018-07-08T09:39:42.838Z,23392.00
2018-07-08T09:40:43.434Z,24256.00
2018-07-08T09:41:42.799Z,22560.00
2018-07-08T09:42:42.780Z,22592.00
2018-07-08T09:43:42.761Z,22112.00
2018-07-08T09:44:42.748Z,20448.00
2018-07-08T09:45:42.772Z,19744.00
2018-07-08T09:46:42.705Z,20384.00
2018-07-08T09:47:42.687Z,22272.00
2018-07-08T09:48:42.685Z,20832.00
2018-07-08T09:49:42.651Z,17920.00
2018-07-08T09:50:43.096Z,18304.00
2018-07-08T09:51:42.612Z,22240.00
2018-07-08T09:52:42.666Z,21088.00
2018-07-08T09:53:42.575Z,16680.00
2018-07-08T09:54:42.559Z,13196.00
2018-07-08T09:55:42.575Z,11236.00
2018-07-08T09:56:42.516Z,12008.00
2018-07-08T09:57:42.537Z,10184.00
2018-07-08T09:58:42.523Z,12032.00
2018-07-08T09:59:42.462Z,12836.00
2018-07-08T10:00:43.033Z,16348.00
2018-07-08T10:01:42.423Z,18048.00
2018-07-08T10:02:42.476Z,15748.00
2018-07-08T10:03:42.381Z,14512.00
2018-07-08T10:04:42.485Z,14648.00
2018-07-08T10:05:42.344Z,14032.00
2018-07-08T10:06:42.326Z,14224.00
2018-07-08T10:07:42.353Z,15876.00
2018-07-08T10:08:42.401Z,17568.00
2018-07-08T10:09:42.312Z,16324.00
2018-07-08T10:10:42.295Z,13972.00
2018-07-08T10:11:43.047Z,14032.00
2018-07-08T10:12:42.236Z,10648.00
2018-07-08T10:13:42.326Z,9560.00
2018-07-08T10:14:42.219Z,9448.00
2018-07-08T10:15:42.160Z,10104.00
2018-07-08T10:16:42.254Z,10504.00
2018-07-08T10:17:42.171Z,11776.00
2018-07-08T10:18:42.095Z,13672.00
2018-07-08T10:19:42.192Z,12984.00
2018-07-08T10:20:42.126Z,14776.00
2018-07-08T10:21:42.031Z,13824.00
2018-07-08T10:22:42.067Z,13340.00
2018-07-08T10:23:41.992Z,10704.00
2018-07-08T10:24:41.971Z,9080.00
2018-07-08T10:25:41.957Z,8760.00
2018-07-08T10:26:41.941Z,8596.00
2018-07-08T10:27:41.967Z,8644.00
2018-07-08T10:28:41.892Z,8880.00
2018-07-08T10:29:41.881Z,10216.00
2018-07-08T10:30:41.856Z,13608.00
2018-07-08T10:31:41.839Z,14308.00
2018-07-08T10:32:41.880Z,12260.00
2018-07-08T10:33:41.789Z,9820.00
2018-07-08T10:34:41.772Z,9236.00
2018-07-08T10:35:41.752Z,9596.00
2018-07-08T10:36:41.737Z,10636.00
2018-07-08T10:37:41.778Z,11112.00
2018-07-08T10:38:41.693Z,11468.00
2018-07-08T10:39:41.677Z,11336.00
2018-07-08T10:40:41.652Z,10124.00
2018-07-08T10:41:41.638Z,9820.00
2018-07-08T10:42:41.661Z,9936.00
2018-07-08T10:43:41.642Z,10276.00
2018-07-08T10:44:41.573Z,10492.00
2018-07-08T10:45:41.556Z,10312.00
2018-07-08T10:46:41.531Z,10252.00
2018-07-08T10:47:41.516Z,11660.00
2018-07-08T10:48:41.538Z,11964.00
2018-07-08T10:49:41.471Z,13380.00
2018-07-08T10:50:41.456Z,15296.00
2018-07-08T10:51:41.432Z,16452.00
2018-07-08T10:52:41.415Z,16436.00
2018-07-08T10:53:41.440Z,16336.00
2018-07-08T10:54:41.421Z,15120.00
2018-07-08T10:55:41.355Z,13148.00
2018-07-08T10:56:41.355Z,12204.00
2018-07-08T10:57:41.316Z,13172.00
2018-07-08T10:58:41.302Z,13444.00
2018-07-08T10:59:41.323Z,14280.00
2018-07-08T11:00:41.263Z,16244.00
2018-07-08T11:01:41.289Z,19040.00
2018-07-08T11:02:41.229Z,19264.00
2018-07-08T11:03:41.197Z,20000.00
2018-07-08T11:04:41.225Z,22432.00
2018-07-08T11:05:41.206Z,22400.00
2018-07-08T11:06:41.156Z,20800.00
2018-07-08T11:07:41.131Z,21152.00
2018-07-08T11:08:41.125Z,20096.00
2018-07-08T11:09:41.084Z,19232.00
2018-07-08T11:10:41.170Z,19104.00
2018-07-08T11:11:41.046Z,19168.00
2018-07-08T11:12:41.033Z,19840.00
2018-07-08T11:13:41.021Z,19776.00
2018-07-08T11:14:41.001Z,19520.00
2018-07-08T11:15:41.025Z,19552.00
2018-07-08T11:16:40.976Z,21248.00
2018-07-08T11:17:40.936Z,21696.00
2018-07-08T11:18:40.932Z,20928.00
2018-07-08T11:19:40.901Z,20640.00
2018-07-08T11:20:41.019Z,18912.00
2018-07-08T11:21:40.865Z,17184.00
2018-07-08T11:22:40.851Z,18176.00
2018-07-08T11:23:40.830Z,18688.00
2018-07-08T11:24:40.817Z,18400.00
2018-07-08T11:25:40.848Z,21184.00
2018-07-08T11:26:40.817Z,22240.00
2018-07-08T11:27:40.756Z,20128.00
2018-07-08T11:28:40.797Z,18592.00
2018-07-08T11:29:40.725Z,19360.00
2018-07-08T11:30:40.701Z,19264.00
2018-07-08T11:31:40.729Z,17728.00
2018-07-08T11:32:40.679Z,19296.00
2018-07-08T11:33:40.646Z,20608.00
2018-07-08T11:34:40.633Z,20288.00
2018-07-08T11:35:40.660Z,18304.00
2018-07-08T11:36:40.654Z,18528.00
2018-07-08T11:37:40.577Z,18304.00
2018-07-08T11:38:40.557Z,16248.00
2018-07-08T11:39:40.544Z,15040.00
2018-07-08T11:40:40.526Z,14204.00
2018-07-08T11:41:40.567Z,16576.00
2018-07-08T11:42:40.488Z,19200.00
2018-07-08T11:43:40.512Z,19552.00
2018-07-08T11:44:40.451Z,19200.00
2018-07-08T11:45:40.437Z,19424.00
2018-07-08T11:46:40.412Z,19744.00
2018-07-08T11:47:40.396Z,19616.00
2018-07-08T11:48:40.422Z,19168.00
2018-07-08T11:49:40.359Z,19008.00
2018-07-08T11:50:40.413Z,17376.00
2018-07-08T11:51:41.078Z,17376.00
2018-07-08T11:52:40.307Z,20096.00
2018-07-08T11:53:40.291Z,19840.00
2018-07-08T11:54:40.281Z,18880.00
2018-07-08T11:55:40.270Z,15720.00
2018-07-08T11:56:40.283Z,13168.00
2018-07-08T11:57:40.230Z,12588.00
2018-07-08T11:58:40.203Z,13584.00
2018-07-08T11:59:40.193Z,13612.00
2018-07-08T12:00:40.172Z,14104.00
2018-07-08T12:01:40.201Z,16148.00
2018-07-08T12:02:40.132Z,18816.00
2018-07-08T12:03:40.117Z,19392.00
2018-07-08T12:04:40.099Z,19488.00
2018-07-08T12:05:40.093Z,18912.00
2018-07-08T12:06:40.106Z,19520.00
2018-07-08T12:07:40.131Z,19232.00
2018-07-08T12:08:40.025Z,18784.00
2018-07-08T12:09:40.010Z,19264.00
2018-07-08T12:10:39.988Z,20256.00